Time;durP1;ratioP1;P1;durP2;ratioP2;P2;SDS_P1;SDS_P2;PMS_P1;PMS_P2;Temp;Humidity;BMP_temperature;BMP_pressure;BME280_temperature;BME280_humidity;BME280_pressure;Samples;Min_cycle;Max_cycle;Signal;HPM_P1;HPM_P2
2021/12/21 00:01:22;;;;;;;17.43;11.33;;;;;;;-2.74;86.53;102010.06;5046271;28;20209;-82
2021/12/21 00:03:49;;;;;;;19.30;11.23;;;;;;;-2.76;86.74;102010.03;5052174;28;20229;-83
2021/12/21 00:06:16;;;;;;;18.10;12.00;;;;;;;-2.75;86.20;102016.13;5049268;28;20212;-84
2021/12/21 00:08:42;;;;;;;15.20;10.33;;;;;;;-2.78;86.51;102006.53;5039272;28;20300;-84
2021/12/21 00:11:11;;;;;;;20.30;12.17;;;;;;;-2.80;86.65;102009.13;5046106;28;20217;-82
2021/12/21 00:13:55;;;;;;;19.13;12.77;;;;;;;-2.80;86.57;102003.91;5045740;28;20248;-84
2021/12/21 00:16:43;;;;;;;21.77;14.10;;;;;;;-2.82;86.85;102009.94;5047321;28;20698;-84
2021/12/21 00:19:24;;;;;;;27.63;14.33;;;;;;;-2.83;86.74;102005.59;5049180;28;20261;-83
2021/12/21 00:21:56;;;;;;;26.53;14.37;;;;;;;-2.85;86.88;102008.19;5039899;28;20238;-84
2021/12/21 00:24:30;;;;;;;23.63;13.33;;;;;;;-2.87;86.61;102004.72;5049580;28;20209;-85
2021/12/21 00:27:00;;;;;;;21.50;13.07;;;;;;;-2.90;86.69;101991.63;5044095;28;20217;-84
2021/12/21 00:29:26;;;;;;;25.83;13.20;;;;;;;-2.92;86.92;102003.75;5048558;28;20656;-84
2021/12/21 00:31:53;;;;;;;22.50;12.50;;;;;;;-2.93;87.01;101999.41;5045666;28;20205;-84
2021/12/21 00:34:19;;;;;;;19.60;11.83;;;;;;;-2.97;86.55;101995.00;5048499;28;20292;-84
2021/12/21 00:36:47;;;;;;;22.13;12.77;;;;;;;-3.02;86.17;101996.66;5053181;28;20296;-85
2021/12/21 00:39:16;;;;;;;18.83;11.97;;;;;;;-3.06;86.42;101994.88;5047687;28;20662;-85
2021/12/21 00:41:42;;;;;;;15.97;10.30;;;;;;;-3.08;86.87;102006.13;5053981;28;20639;-84
2021/12/21 00:44:10;;;;;;;15.83;11.57;;;;;;;-3.13;86.93;101990.44;5052039;28;20232;-85
2021/12/21 00:46:38;;;;;;;17.17;11.67;;;;;;;-3.15;87.05;101999.97;5048098;28;20569;-83
2021/12/21 00:49:13;;;;;;;20.43;12.87;;;;;;;-3.15;86.69;102006.03;5046372;28;20194;-84
2021/12/21 00:51:41;;;;;;;24.17;12.90;;;;;;;-3.17;87.01;102004.25;5046431;28;20209;-84
2021/12/21 00:54:08;;;;;;;19.43;11.47;;;;;;;-3.17;87.19;102001.66;5054112;28;20222;-86
2021/12/21 00:56:34;;;;;;;17.87;12.07;;;;;;;-3.17;87.06;102009.47;5050575;28;20209;-85
2021/12/21 00:59:01;;;;;;;23.70;12.57;;;;;;;-3.18;87.10;102000.78;5050370;28;20664;-85
2021/12/21 01:01:29;;;;;;;20.03;12.27;;;;;;;-3.19;87.29;102004.25;5048982;28;20212;-85
2021/12/21 01:03:58;;;;;;;18.63;11.63;;;;;;;-3.20;86.89;101996.41;5048120;28;20723;-84
2021/12/21 01:06:37;;;;;;;24.17;12.30;;;;;;;-3.23;87.22;101997.25;5048269;28;20209;-83
2021/12/21 01:09:11;;;;;;;18.20;11.93;;;;;;;-3.23;87.23;101994.66;5043435;28;20252;-83
2021/12/21 01:11:41;;;;;;;22.97;12.50;;;;;;;-3.24;87.00;102000.72;5043607;28;20220;-83
2021/12/21 01:14:33;;;;;;;22.83;13.10;;;;;;;-3.25;87.08;101992.88;5052610;28;20702;-83
2021/12/21 01:17:07;;;;;;;26.40;14.57;;;;;;;-3.27;87.34;101984.16;5045141;28;20669;-82
2021/12/21 01:19:38;;;;;;;27.63;12.93;;;;;;;-3.28;86.96;101991.09;5051992;28;20205;-82
2021/12/21 01:22:13;;;;;;;21.00;13.03;;;;;;;-3.29;86.98;101996.28;5042216;28;20218;-82
2021/12/21 01:24:55;;;;;;;20.13;13.13;;;;;;;-3.32;87.22;101986.69;5048731;28;20194;-84
2021/12/21 01:27:31;;;;;;;21.80;12.33;;;;;;;-3.35;87.00;101994.44;5042478;28;20210;-84
2021/12/21 01:30:07;;;;;;;20.33;11.97;;;;;;;-3.37;87.11;101987.47;5054934;28;20205;-84
2021/12/21 01:32:53;;;;;;;22.87;12.33;;;;;;;-3.39;87.27;101996.97;5041580;28;20225;-85
2021/12/21 01:35:27;;;;;;;20.97;13.47;;;;;;;-3.41;87.11;101983.97;5054017;28;20271;-85
2021/12/21 01:37:55;;;;;;;18.93;11.80;;;;;;;-3.43;87.21;101977.84;5056337;28;20281;-85
2021/12/21 01:40:37;;;;;;;26.67;11.93;;;;;;;-3.45;87.10;101984.75;5054752;28;20210;-85
2021/12/21 01:43:25;;;;;;;17.43;10.00;;;;;;;-3.47;86.83;101975.16;5050530;28;20673;-85
2021/12/21 01:51:22;;;;;;;16.50;9.47;;;;;;;-3.59;87.20;101976.75;5047353;28;20216;-85
2021/12/21 01:53:49;;;;;;;13.77;9.13;;;;;;;-3.59;87.00;101973.28;5050887;28;20238;-85
2021/12/21 01:56:17;;;;;;;17.53;10.50;;;;;;;-3.61;87.01;101977.56;5045028;28;20300;-85
2021/12/21 01:58:44;;;;;;;19.60;10.30;;;;;;;-3.63;86.95;101969.72;5054369;28;20711;-85
2021/12/21 02:01:13;;;;;;;18.70;10.37;;;;;;;-3.62;86.91;101978.41;5043368;28;20569;-85
2021/12/21 02:03:47;;;;;;;13.47;9.07;;;;;;;-3.64;87.05;101967.09;5049366;28;20596;-85
2021/12/21 02:06:15;;;;;;;15.93;9.63;;;;;;;-3.66;87.05;101963.59;5050725;28;20612;-85
2021/12/21 02:08:41;;;;;;;15.70;10.27;;;;;;;-3.67;87.02;101972.25;5048903;28;20198;-84
2021/12/21 02:11:08;;;;;;;15.37;10.10;;;;;;;-3.70;87.06;101957.47;5052063;28;20565;-83
2021/12/21 02:13:37;;;;;;;17.40;9.60;;;;;;;-3.70;87.05;101967.00;5042073;28;20229;-85
2021/12/21 02:16:04;;;;;;;16.33;10.00;;;;;;;-3.71;87.06;101953.09;5045434;28;20268;-83
2021/12/21 02:18:38;;;;;;;14.47;10.27;;;;;;;-3.72;87.39;101960.88;5046401;28;20234;-84
2021/12/21 02:21:19;;;;;;;15.40;10.03;;;;;;;-3.74;87.21;101958.25;5053254;28;20202;-84
2021/12/21 02:23:47;;;;;;;17.10;10.17;;;;;;;-3.76;87.00;101952.16;5039713;28;20225;-83
2021/12/21 02:26:37;;;;;;;18.77;9.80;;;;;;;-3.76;87.11;101959.97;5043313;28;20233;-83
2021/12/21 02:31:37;;;;;;;14.97;9.73;;;;;;;-3.80;87.19;101952.09;5045837;28;20225;-71
2021/12/21 02:34:05;;;;;;;17.93;10.27;;;;;;;-3.80;87.13;101949.50;5051154;28;20206;-70
2021/12/21 02:36:33;;;;;;;14.83;9.57;;;;;;;-3.82;87.04;101946.88;5037541;28;20667;-71
2021/12/21 02:38:59;;;;;;;15.43;10.10;;;;;;;-3.82;87.58;101952.06;5030288;28;20198;-70
2021/12/21 02:43:56;;;;;;;26.20;14.30;;;;;;;-3.85;87.02;101945.09;5055385;22;20271;-77
2021/12/21 02:46:24;;;;;;;29.23;15.27;;;;;;;-3.88;87.19;101947.63;5028231;28;20210;-77
2021/12/21 02:48:50;;;;;;;27.53;14.63;;;;;;;-3.88;87.09;101944.16;5028677;28;20210;-77
2021/12/21 02:51:17;;;;;;;26.67;13.20;;;;;;;-3.91;87.02;101936.28;5031825;28;20705;-77
2021/12/21 02:53:45;;;;;;;19.93;11.17;;;;;;;-3.92;87.11;101938.00;5040044;28;20234;-77
2021/12/21 02:56:11;;;;;;;18.83;11.17;;;;;;;-3.94;87.18;101950.13;5041417;28;20681;-77
2021/12/21 02:58:39;;;;;;;16.70;10.30;;;;;;;-3.95;87.30;101950.13;5034251;28;20698;-77
2021/12/21 03:01:07;;;;;;;17.20;9.80;;;;;;;-3.98;86.89;101944.88;5031771;28;20210;-77
2021/12/21 03:03:34;;;;;;;16.03;10.20;;;;;;;-3.99;87.09;101948.31;5028465;28;20594;-76
2021/12/21 03:06:03;;;;;;;16.90;10.00;;;;;;;-4.00;87.08;101946.56;5038471;28;20205;-76
2021/12/21 03:08:38;;;;;;;17.20;10.03;;;;;;;-4.01;87.17;101950.00;5035540;28;20294;-76
2021/12/21 03:11:13;;;;;;;16.40;10.43;;;;;;;-4.02;87.03;101948.25;5029821;28;20201;-77
2021/12/21 03:16:24;;;;;;;17.90;9.50;;;;;;;-4.05;87.20;101948.19;5043149;28;20217;-77
2021/12/21 03:18:55;;;;;;;16.47;9.90;;;;;;;-4.06;87.22;101954.25;5037558;28;20209;-77
2021/12/21 03:21:22;;;;;;;31.47;14.83;;;;;;;-4.08;86.99;101950.75;5031811;28;20206;-76
2021/12/21 03:23:49;;;;;;;29.03;14.20;;;;;;;-4.10;87.23;101950.72;5035569;28;20234;-76
2021/12/21 03:26:16;;;;;;;23.90;14.00;;;;;;;-4.12;87.07;101948.97;5046679;28;20205;-77
2021/12/21 03:28:44;;;;;;;25.57;13.80;;;;;;;-4.12;87.17;101944.59;5038556;28;20297;-76
2021/12/21 03:31:11;;;;;;;24.40;12.57;;;;;;;-4.13;87.28;101949.81;5033414;28;20214;-77
2021/12/21 03:33:37;;;;;;;22.20;12.83;;;;;;;-4.15;87.19;101948.91;5030256;28;20229;-76
2021/12/21 03:36:05;;;;;;;25.57;12.70;;;;;;;-4.15;87.20;101946.31;5042689;28;20674;-76
2021/12/21 03:38:33;;;;;;;25.57;12.33;;;;;;;-4.16;87.13;101941.97;5034985;28;20205;-77
2021/12/21 03:41:05;;;;;;;22.50;12.33;;;;;;;-4.19;87.20;101950.56;5024922;28;20309;-77
2021/12/21 03:43:33;;;;;;;20.20;11.20;;;;;;;-4.20;87.22;101946.22;5031501;28;20329;-76
2021/12/21 03:46:07;;;;;;;22.07;12.33;;;;;;;-4.21;87.13;101944.47;5043986;28;20205;-77
2021/12/21 03:48:34;;;;;;;16.33;11.13;;;;;;;-4.22;87.42;101938.38;5035119;28;20617;-77
2021/12/21 03:51:00;;;;;;;22.60;12.53;;;;;;;-4.23;87.36;101939.22;5033048;28;20202;-77
2021/12/21 03:53:27;;;;;;;22.13;11.53;;;;;;;-4.23;87.26;101934.03;5033056;28;20228;-77
2021/12/21 03:56:04;;;;;;;17.30;11.23;;;;;;;-4.23;87.27;101933.16;5029626;28;20609;-77
2021/12/21 03:58:31;;;;;;;16.07;10.60;;;;;;;-4.24;87.50;101934.00;5032874;28;20250;-76
2021/12/21 04:00:59;;;;;;;17.70;10.73;;;;;;;-4.26;87.14;101926.16;5032985;28;20206;-76
2021/12/21 04:03:25;;;;;;;17.60;10.43;;;;;;;-4.26;87.09;101926.16;5039188;28;20233;-76
2021/12/21 04:05:52;;;;;;;16.13;10.10;;;;;;;-4.29;87.10;101931.31;5036594;28;20217;-77
2021/12/21 04:08:18;;;;;;;22.53;12.23;;;;;;;-4.30;87.36;101928.72;5038904;28;20212;-76
2021/12/21 04:10:45;;;;;;;26.53;12.73;;;;;;;-4.30;87.18;101936.53;5044393;28;20694;-76
2021/12/21 04:13:11;;;;;;;26.00;13.17;;;;;;;-4.31;87.49;101934.75;5040210;28;20604;-76
2021/12/21 04:15:42;;;;;;;24.57;12.53;;;;;;;-4.33;87.24;101934.72;5035559;28;20213;-77
2021/12/21 04:18:11;;;;;;;19.53;11.43;;;;;;;-4.33;87.23;101928.66;5035201;28;20210;-77
2021/12/21 04:20:37;;;;;;;18.07;10.63;;;;;;;-4.35;87.35;101928.63;5048764;28;20198;-76
2021/12/21 04:23:04;;;;;;;18.50;11.10;;;;;;;-4.35;87.36;101927.75;5048032;28;20259;-77
2021/12/21 04:25:31;;;;;;;17.87;10.57;;;;;;;-4.35;87.25;101935.56;5026679;28;20202;-76
2021/12/21 04:27:58;;;;;;;21.33;10.57;;;;;;;-4.38;87.43;101933.75;5036738;28;20224;-77
2021/12/21 04:30:25;;;;;;;18.13;11.00;;;;;;;-4.38;87.32;101931.16;5035354;28;20206;-75
2021/12/21 04:32:51;;;;;;;25.40;13.80;;;;;;;-4.39;87.18;101942.41;5039851;28;20710;-76
2021/12/21 04:35:20;;;;;;;18.67;11.50;;;;;;;-4.39;87.39;101936.34;5044220;28;20212;-76
2021/12/21 04:37:51;;;;;;;23.23;13.53;;;;;;;-4.41;87.23;101936.31;5039071;28;20312;-77
2021/12/21 04:40:21;;;;;;;22.60;12.77;;;;;;;-4.42;87.35;101934.56;5035510;28;20297;-74
2021/12/21 04:42:47;;;;;;;19.70;12.00;;;;;;;-4.42;87.38;101942.34;5038395;28;20233;-76
2021/12/21 04:45:14;;;;;;;19.60;11.10;;;;;;;-4.43;87.33;101935.41;5048252;28;20217;-77
2021/12/21 04:47:40;;;;;;;19.93;11.43;;;;;;;-4.43;87.55;101925.00;5037464;28;20198;-77
2021/12/21 04:50:08;;;;;;;20.80;11.40;;;;;;;-4.43;87.41;101929.31;5037413;28;20313;-77
2021/12/21 04:52:36;;;;;;;23.17;13.30;;;;;;;-4.42;87.56;101924.16;5033840;28;20236;-77
2021/12/21 04:55:03;;;;;;;23.70;13.30;;;;;;;-4.43;87.37;101922.41;5034287;28;20281;-76
2021/12/21 04:57:29;;;;;;;23.17;12.97;;;;;;;-4.43;87.59;101919.78;5039794;28;20579;-76
2021/12/21 04:59:56;;;;;;;23.90;14.27;;;;;;;-4.44;87.50;101922.38;5036891;28;20506;-77
2021/12/21 05:02:23;;;;;;;27.53;16.10;;;;;;;-4.45;87.71;101920.63;5025346;28;20698;-76
2021/12/21 05:04:50;;;;;;;25.90;14.33;;;;;;;-4.46;87.77;101921.47;5023576;28;20285;-76
2021/12/21 05:07:22;;;;;;;23.57;15.03;;;;;;;-4.48;87.80;101924.06;5033548;28;20258;-76
2021/12/21 05:09:56;;;;;;;24.07;14.70;;;;;;;-4.48;87.91;101921.47;5039169;28;20218;-77
2021/12/21 05:12:23;;;;;;;22.70;13.43;;;;;;;-4.49;87.89;101935.31;5036806;28;20233;-77
2021/12/21 05:14:49;;;;;;;23.90;12.10;;;;;;;-4.49;87.99;101927.50;5036422;28;20209;-76
2021/12/21 05:17:16;;;;;;;22.80;12.80;;;;;;;-4.51;87.93;101921.41;5032080;28;20206;-76
2021/12/21 05:19:43;;;;;;;16.90;11.30;;;;;;;-4.51;87.95;101918.81;5026961;28;20219;-76
2021/12/21 05:22:09;;;;;;;18.13;11.53;;;;;;;-4.51;87.74;101934.41;5026006;28;20222;-77
2021/12/21 05:24:36;;;;;;;20.23;12.00;;;;;;;-4.50;88.15;101933.56;5032196;28;20238;-76
2021/12/21 05:27:04;;;;;;;21.43;11.90;;;;;;;-4.52;87.90;101930.03;5037195;28;20689;-76
2021/12/21 05:29:31;;;;;;;20.90;11.97;;;;;;;-4.51;88.26;101925.72;5048388;28;20210;-76
2021/12/21 05:31:58;;;;;;;33.13;15.00;;;;;;;-4.53;88.19;101925.69;5030722;28;20280;-77
2021/12/21 05:34:25;;;;;;;21.90;12.93;;;;;;;-4.52;88.14;101930.03;5026004;28;20215;-76
2021/12/21 05:36:52;;;;;;;25.67;13.33;;;;;;;-4.52;88.35;101930.03;5021590;28;20198;-76
2021/12/21 05:39:22;;;;;;;23.03;14.10;;;;;;;-4.53;88.30;101930.03;5023247;28;20199;-75
2021/12/21 05:41:50;;;;;;;21.90;14.20;;;;;;;-4.55;88.41;101933.47;5019159;28;20201;-76
2021/12/21 05:44:21;;;;;;;20.60;12.87;;;;;;;-4.57;88.22;101937.75;5022668;28;20606;-76
2021/12/21 05:46:47;;;;;;;19.27;12.10;;;;;;;-4.58;88.31;101937.72;5024221;28;20214;-76
2021/12/21 05:49:14;;;;;;;20.87;11.77;;;;;;;-4.60;88.29;101942.00;5020405;28;20210;-77
2021/12/21 05:51:41;;;;;;;20.47;11.97;;;;;;;-4.63;88.27;101942.81;5019874;28;20198;-76
2021/12/21 05:54:08;;;;;;;21.63;12.00;;;;;;;-4.64;88.29;101940.19;5020892;28;20222;-76
2021/12/21 05:56:34;;;;;;;26.83;12.70;;;;;;;-4.65;88.34;101939.31;5027276;28;20237;-76
2021/12/21 05:59:02;;;;;;;22.13;12.33;;;;;;;-4.65;88.30;101941.03;5025125;28;20202;-76
2021/12/21 06:01:31;;;;;;;21.23;12.57;;;;;;;-4.67;88.31;101935.84;5024558;28;20264;-76
2021/12/21 06:03:57;;;;;;;19.10;11.07;;;;;;;-4.68;88.29;101935.81;5025711;28;20234;-76
2021/12/21 06:06:24;;;;;;;22.67;12.00;;;;;;;-4.72;88.31;101937.47;5022049;28;20209;-76
2021/12/21 06:08:52;;;;;;;22.93;12.03;;;;;;;-4.75;88.58;101945.19;5025203;28;20209;-77
2021/12/21 06:11:21;;;;;;;23.30;11.77;;;;;;;-4.75;88.27;101942.59;5021361;28;20206;-77
2021/12/21 06:27:31;;;;;;;20.97;11.90;;;;;;;-4.86;88.04;101948.44;5026657;28;20749;-76
2021/12/21 06:29:58;;;;;;;18.27;11.20;;;;;;;-4.87;88.12;101938.88;5022461;28;20566;-76
2021/12/21 06:32:26;;;;;;;21.63;11.17;;;;;;;-4.87;88.02;101949.28;5022570;28;20740;-76
2021/12/21 06:34:53;;;;;;;18.73;11.27;;;;;;;-4.88;88.11;101947.53;5026889;28;20198;-76
2021/12/21 06:37:20;;;;;;;18.80;11.10;;;;;;;-4.89;88.30;101949.25;5026459;28;20659;-77
2021/12/21 06:39:48;;;;;;;19.53;11.33;;;;;;;-4.90;88.15;101945.78;5026034;28;20206;-77
2021/12/21 06:42:15;;;;;;;22.90;11.83;;;;;;;-4.88;88.46;101950.13;5025893;28;20651;-76
2021/12/21 06:44:44;;;;;;;23.37;13.20;;;;;;;-4.90;88.25;101948.38;5029801;28;20241;-75
2021/12/21 06:52:42;;;;;;;20.67;12.83;;;;;;;-4.85;88.27;101938.09;5019912;28;20248;-76
2021/12/21 06:55:09;;;;;;;21.53;12.73;;;;;;;-4.83;88.45;101944.16;5022424;28;20199;-76
2021/12/21 06:57:39;;;;;;;19.37;12.40;;;;;;;-4.81;88.50;101941.59;5020646;28;20210;-74
2021/12/21 07:00:07;;;;;;;23.40;11.67;;;;;;;-4.80;88.71;101938.16;5024424;28;20225;-76
2021/12/21 07:02:34;;;;;;;18.30;11.13;;;;;;;-4.79;88.70;101951.16;5016052;28;20223;-75
2021/12/21 07:05:03;;;;;;;20.30;11.27;;;;;;;-4.77;88.46;101948.59;5014519;28;20258;-76
2021/12/21 07:07:30;;;;;;;23.27;12.13;;;;;;;-4.74;88.61;101948.66;5020553;28;20550;-75
2021/12/21 07:10:00;;;;;;;23.70;11.47;;;;;;;-4.74;88.60;101949.56;5018688;28;20256;-75
2021/12/21 07:17:59;;;;;;;17.33;11.67;;;;;;;-4.72;88.72;101953.06;5024214;28;20226;-75
2021/12/21 07:18:24;;;;;;;19.00;10.67;;;;;;;-4.68;88.81;101946.19;5022635;28;20217;-76
2021/12/21 07:20:52;;;;;;;20.23;10.90;;;;;;;-4.67;88.79;101948.84;5012498;28;20298;-75
2021/12/21 07:23:19;;;;;;;17.63;11.00;;;;;;;-4.69;88.74;101953.13;5015427;28;20280;-75
2021/12/21 07:25:47;;;;;;;19.10;11.30;;;;;;;-4.69;88.56;101952.25;5028314;28;20476;-75
2021/12/21 07:28:14;;;;;;;20.10;10.80;;;;;;;-4.68;88.79;101951.41;5041782;28;20229;-76
2021/12/21 07:30:40;;;;;;;22.13;11.87;;;;;;;-4.67;89.15;101955.75;5039942;28;20659;-75
2021/12/21 07:33:07;;;;;;;19.63;11.00;;;;;;;-4.66;89.07;101952.31;5035493;28;20702;-76
2021/12/21 07:35:34;;;;;;;19.60;12.10;;;;;;;-4.64;88.84;101951.47;5035275;28;20202;-76
2021/12/21 07:38:03;;;;;;;21.23;11.13;;;;;;;-4.61;88.97;101956.72;5024456;28;20697;-75
2021/12/21 07:40:29;;;;;;;19.40;10.50;;;;;;;-4.59;88.80;101959.38;5045587;28;20208;-75
2021/12/21 07:42:56;;;;;;;24.03;11.70;;;;;;;-4.56;88.92;101960.31;5038955;28;20722;-76
2021/12/21 07:45:22;;;;;;;21.93;12.30;;;;;;;-4.53;89.04;101967.28;5033780;28;20232;-76
2021/12/21 07:47:49;;;;;;;19.93;11.37;;;;;;;-4.52;89.01;101963.84;5031685;28;20235;-76
2021/12/21 07:50:17;;;;;;;18.47;11.33;;;;;;;-4.50;89.08;101964.75;5030580;28;20309;-75
2021/12/21 07:52:43;;;;;;;21.70;11.67;;;;;;;-4.49;89.08;101969.13;5041098;28;20229;-75
2021/12/21 07:57:56;;;;;;;18.73;11.67;;;;;;;-4.45;89.06;101976.09;5028478;28;20212;-76
2021/12/21 08:00:23;;;;;;;25.47;12.40;;;;;;;-4.43;89.03;101977.00;5028969;28;20214;-76
2021/12/21 08:02:50;;;;;;;17.97;12.00;;;;;;;-4.43;89.08;101976.13;5028460;28;20222;-76
2021/12/21 08:05:17;;;;;;;23.37;12.40;;;;;;;-4.42;89.09;101975.28;5026180;28;20256;-76
2021/12/21 08:07:50;;;;;;;21.43;11.87;;;;;;;-4.40;89.10;101981.38;5021328;28;20331;-75
2021/12/21 08:10:25;;;;;;;21.27;11.13;;;;;;;-4.40;89.06;101982.25;5019168;28;20745;-76
2021/12/21 08:12:52;;;;;;;16.93;11.57;;;;;;;-4.39;89.04;101981.41;5020920;28;20240;-76
2021/12/21 08:15:19;;;;;;;29.40;12.70;;;;;;;-4.38;88.95;101982.28;5022942;28;20194;-76
2021/12/21 08:17:45;;;;;;;24.93;12.67;;;;;;;-4.35;89.12;101988.44;5026273;28;20202;-76
2021/12/21 08:20:12;;;;;;;24.30;12.63;;;;;;;-4.33;89.05;101983.28;5026515;28;20326;-76
2021/12/21 08:22:39;;;;;;;26.47;14.97;;;;;;;-4.32;89.03;101985.03;5021687;28;20254;-75
2021/12/21 08:25:07;;;;;;;27.10;14.67;;;;;;;-4.29;89.10;101985.06;5023281;28;20230;-75
2021/12/21 08:27:35;;;;;;;25.53;14.20;;;;;;;-4.29;88.96;101980.72;5027724;28;20751;-76
2021/12/21 08:30:02;;;;;;;21.93;13.57;;;;;;;-4.27;88.99;101989.44;5022744;28;20210;-75
2021/12/21 08:32:28;;;;;;;25.50;13.90;;;;;;;-4.27;89.01;101986.84;5024921;28;20226;-75
2021/12/21 08:34:55;;;;;;;23.97;13.73;;;;;;;-4.25;88.84;101992.06;5028534;28;20199;-75
2021/12/21 08:37:21;;;;;;;20.27;13.23;;;;;;;-4.23;88.75;101988.66;5028755;28;20217;-75
2021/12/21 08:39:48;;;;;;;23.40;13.50;;;;;;;-4.23;88.95;101986.06;5017418;28;20202;-75
2021/12/21 08:44:47;;;;;;;25.10;14.27;;;;;;;-4.17;88.96;101987.03;5118163;22;20226;-72
2021/12/21 08:47:15;;;;;;;30.67;16.07;;;;;;;-4.14;88.84;101989.69;5086853;28;20299;-72
2021/12/21 08:49:42;;;;;;;32.10;16.50;;;;;;;-4.12;88.95;101986.22;5086465;28;20200;-73
2021/12/21 08:52:08;;;;;;;30.83;18.17;;;;;;;-4.09;88.90;101985.41;5087706;28;20208;-73
2021/12/21 08:54:35;;;;;;;26.73;15.80;;;;;;;-4.07;88.93;101988.94;5068269;28;20221;-72
2021/12/21 08:57:01;;;;;;;30.33;16.53;;;;;;;-4.05;89.25;101997.63;5071857;28;20208;-72
2021/12/21 08:59:28;;;;;;;29.13;16.77;;;;;;;-4.05;88.86;101995.03;5072799;28;20231;-72
2021/12/21 09:01:56;;;;;;;26.30;16.33;;;;;;;-4.04;88.82;102002.88;5067441;28;20209;-73
2021/12/21 09:04:22;;;;;;;30.43;16.97;;;;;;;-4.04;88.90;102002.00;5075655;28;20233;-73
2021/12/21 09:06:49;;;;;;;32.77;17.60;;;;;;;-4.03;88.96;101991.63;5067158;28;20209;-73
2021/12/21 09:09:16;;;;;;;27.83;16.83;;;;;;;-4.00;89.02;101998.59;5068309;28;20220;-73
2021/12/21 09:11:45;;;;;;;29.13;17.73;;;;;;;-3.98;89.12;101991.72;5077034;28;20202;-73
2021/12/21 09:14:12;;;;;;;28.37;16.63;;;;;;;-3.97;89.14;101989.13;5074951;28;20233;-73
2021/12/21 09:16:38;;;;;;;36.60;17.50;;;;;;;-3.95;89.00;101989.16;5065193;28;20211;-75
2021/12/21 09:19:06;;;;;;;34.80;19.03;;;;;;;-3.94;88.89;101983.09;5070110;28;20201;-75
2021/12/21 09:21:33;;;;;;;33.93;18.70;;;;;;;-3.93;88.67;101984.84;5069769;28;20207;-75
2021/12/21 09:23:59;;;;;;;35.07;18.57;;;;;;;-3.91;89.01;101986.63;5068596;28;20220;-75
2021/12/21 09:26:27;;;;;;;32.30;18.50;;;;;;;-3.86;89.21;101986.69;5070199;28;20220;-74
2021/12/21 09:28:53;;;;;;;38.10;19.30;;;;;;;-3.85;89.17;101985.84;5066277;28;20206;-73
2021/12/21 09:31:20;;;;;;;41.40;20.23;;;;;;;-3.81;89.15;101986.78;5070864;28;20205;-73
2021/12/21 09:33:47;;;;;;;37.20;19.60;;;;;;;-3.78;89.46;101990.31;5070409;28;20227;-72
2021/12/21 09:36:14;;;;;;;44.97;21.37;;;;;;;-3.73;89.43;101993.84;5071426;28;20205;-74
2021/12/21 09:38:41;;;;;;;39.67;21.83;;;;;;;-3.69;89.56;101995.66;5073959;28;20208;-72
2021/12/21 09:41:08;;;;;;;40.43;21.13;;;;;;;-3.64;89.50;101988.81;5070398;28;20212;-73
2021/12/21 09:43:34;;;;;;;36.70;19.47;;;;;;;-3.59;89.84;101994.97;5074227;28;20581;-73
2021/12/21 09:46:01;;;;;;;34.23;19.00;;;;;;;-3.53;89.84;101995.06;5068897;28;20243;-73
2021/12/21 09:48:29;;;;;;;35.97;18.47;;;;;;;-3.48;89.89;101992.53;5073441;28;20200;-73
2021/12/21 09:50:56;;;;;;;34.57;18.43;;;;;;;-3.42;89.76;101989.16;5070269;28;20262;-73
2021/12/21 09:53:26;;;;;;;34.37;18.13;;;;;;;-3.35;89.93;102004.88;5073053;28;20225;-74
2021/12/21 09:55:53;;;;;;;28.63;16.27;;;;;;;-3.28;90.04;102005.84;5069476;28;20207;-72
2021/12/21 09:58:20;;;;;;;31.60;16.17;;;;;;;-3.22;89.93;102004.19;5069326;28;20231;-75
2021/12/21 10:00:46;;;;;;;31.60;15.77;;;;;;;-3.14;90.56;102009.53;5072455;28;20197;-74
2021/12/21 10:03:14;;;;;;;27.63;15.07;;;;;;;-3.09;90.15;102005.25;5067356;28;20599;-73
2021/12/21 10:05:43;;;;;;;22.23;14.23;;;;;;;-3.03;90.02;102002.72;5065578;28;20224;-74
2021/12/21 10:08:11;;;;;;;23.30;14.83;;;;;;;-2.98;90.36;102003.66;5066717;28;20206;-74
2021/12/21 10:10:41;;;;;;;23.87;14.60;;;;;;;-2.96;90.24;101996.75;5072773;28;20211;-75
2021/12/21 10:13:11;;;;;;;27.43;14.50;;;;;;;-2.92;90.16;102000.28;5069791;28;20215;-72
2021/12/21 10:15:41;;;;;;;26.80;14.63;;;;;;;-2.90;89.85;102002.06;5064291;28;20669;-74
2021/12/21 10:18:08;;;;;;;25.27;14.73;;;;;;;-2.85;89.80;102002.09;5061842;28;20209;-74
2021/12/21 10:20:36;;;;;;;29.40;14.97;;;;;;;-2.82;89.95;101995.19;5073393;28;20295;-75
2021/12/21 10:23:11;;;;;;;27.13;16.20;;;;;;;-2.78;90.23;101995.22;5081565;28;20224;-74
2021/12/21 10:25:46;;;;;;;30.37;17.17;;;;;;;-2.74;89.96;101997.03;5069187;28;20225;-74
2021/12/21 10:28:29;;;;;;;32.13;18.20;;;;;;;-2.70;90.10;102002.31;5071353;28;20578;-74
2021/12/21 10:30:56;;;;;;;44.60;21.20;;;;;;;-2.67;89.93;101993.63;5060676;28;20208;-73
2021/12/21 10:33:24;;;;;;;41.33;20.57;;;;;;;-2.64;90.17;101978.00;5065008;28;20221;-71
2021/12/21 10:35:53;;;;;;;51.43;21.93;;;;;;;-2.60;90.12;101978.09;5070434;28;20572;-74
2021/12/21 10:38:34;;;;;;;50.80;22.53;;;;;;;-2.56;89.77;101971.16;5072888;28;20201;-74
2021/12/21 10:41:10;;;;;;;51.47;22.80;;;;;;;-2.54;89.88;101974.69;5081034;28;20200;-74
2021/12/21 10:43:37;;;;;;;49.37;24.43;;;;;;;-2.52;89.88;101972.97;5060969;28;20310;-74
2021/12/21 10:46:04;;;;;;;60.87;24.87;;;;;;;-2.50;90.38;101972.09;5068771;28;20229;-74
2021/12/21 10:48:35;;;;;;;55.10;24.73;;;;;;;-2.45;90.39;101972.16;5076046;28;20594;-74
2021/12/21 10:51:02;;;;;;;53.47;24.43;;;;;;;-2.41;90.79;101975.69;5067599;28;20213;-74
2021/12/21 10:53:29;;;;;;;60.13;25.57;;;;;;;-2.38;90.33;101966.16;5067721;28;20221;-72
2021/12/21 10:56:01;;;;;;;59.10;24.63;;;;;;;-2.34;90.88;101969.69;5069849;28;20201;-73
2021/12/21 10:58:30;;;;;;;59.80;26.00;;;;;;;-2.32;91.06;101965.31;5070277;28;20208;-72
2021/12/21 11:00:59;;;;;;;54.43;25.87;;;;;;;-2.30;91.18;101963.59;5069665;28;20579;-74
2021/12/21 11:03:32;;;;;;;56.83;24.73;;;;;;;-2.27;90.86;101961.91;5072912;28;20240;-74
2021/12/21 11:06:08;;;;;;;94.80;28.17;;;;;;;-2.23;91.08;101962.81;5066784;28;20649;-74
2021/12/21 11:08:38;;;;;;;84.30;27.63;;;;;;;-2.22;91.31;101960.22;5068665;28;20738;-74
2021/12/21 11:11:10;;;;;;;67.90;27.97;;;;;;;-2.20;91.14;101950.69;5066960;28;20631;-74
2021/12/21 11:13:38;;;;;;;63.10;28.27;;;;;;;-2.16;91.31;101954.22;5069216;28;20231;-74
2021/12/21 11:16:07;;;;;;;77.60;29.00;;;;;;;-2.13;91.56;101952.47;5071846;28;20200;-75
2021/12/21 11:18:37;;;;;;;108.90;32.47;;;;;;;-2.11;91.72;101945.53;5072443;28;20569;-74
2021/12/21 11:21:09;;;;;;;84.07;30.03;;;;;;;-2.07;91.81;101930.78;5073133;28;20209;-74
2021/12/21 11:23:38;;;;;;;84.20;30.83;;;;;;;-2.04;91.97;101936.03;5071275;28;20588;-74
2021/12/21 11:26:07;;;;;;;85.33;28.40;;;;;;;-1.99;91.46;101947.41;5073443;28;20231;-75
2021/12/21 11:28:36;;;;;;;64.90;27.97;;;;;;;-1.97;92.08;101931.75;5070958;28;20273;-75
2021/12/21 11:31:06;;;;;;;73.93;30.00;;;;;;;-1.92;92.08;101945.69;5062077;28;20201;-76
2021/12/21 11:33:36;;;;;;;71.80;29.07;;;;;;;-1.87;92.50;101950.09;5063184;28;20231;-76
2021/12/21 11:38:48;;;;;;;90.77;30.73;;;;;;;-1.79;92.09;101940.56;5063128;28;20253;-76
2021/12/21 11:41:16;;;;;;;119.17;28.97;;;;;;;-1.76;91.97;101932.78;5065651;28;20209;-78
2021/12/21 11:44:03;;;;;;;102.20;28.03;;;;;;;-1.76;92.02;101935.38;5068882;28;20648;-76
2021/12/21 11:46:40;;;;;;;57.23;26.67;;;;;;;-1.75;91.98;101931.91;5067907;28;21173;-78
2021/12/21 11:49:13;;;;;;;73.10;30.03;;;;;;;-1.73;92.49;101925.81;5061297;28;20228;-74
2021/12/21 11:51:40;;;;;;;56.93;26.37;;;;;;;-1.71;92.21;101927.59;5067566;28;20215;-76
2021/12/21 11:54:16;;;;;;;56.37;27.63;;;;;;;-1.68;92.25;101922.41;5071846;28;20233;-74
2021/12/21 11:56:43;;;;;;;79.03;28.37;;;;;;;-1.65;92.63;101930.25;5071267;28;20200;-76
2021/12/21 11:59:09;;;;;;;70.07;28.07;;;;;;;-1.65;92.19;101930.25;5066684;28;20212;-78
2021/12/21 12:01:46;;;;;;;60.97;28.80;;;;;;;-1.62;92.69;101926.78;5066150;28;20196;-77